createdAt,value
2019-02-03T00:01:50.702Z,50.47
2019-02-03T00:04:21.261Z,48.57
2019-02-03T00:07:02.665Z,47.60
2019-02-03T00:09:24.017Z,48.70
2019-02-03T00:11:54.611Z,49.03
2019-02-03T00:14:25.138Z,49.03
2019-02-03T00:16:55.638Z,50.40
2019-02-03T00:19:26.107Z,49.33
2019-02-03T00:21:56.597Z,48.90
2019-02-03T00:24:27.102Z,48.73
2019-02-03T00:26:57.552Z,48.00
2019-02-03T00:29:28.124Z,48.60
2019-02-03T00:31:58.577Z,48.07
2019-02-03T00:34:29.067Z,49.43
2019-02-03T00:36:59.542Z,49.53
2019-02-03T00:39:30.039Z,51.13
2019-02-03T00:42:00.866Z,50.53
2019-02-03T00:44:31.368Z,53.60
2019-02-03T00:47:01.821Z,53.60
2019-02-03T00:49:32.312Z,50.93
2019-02-03T00:52:02.773Z,51.63
2019-02-03T00:54:33.554Z,51.53
2019-02-03T00:57:04.024Z,52.57
2019-02-03T00:59:34.535Z,53.70
2019-02-03T01:02:05.513Z,55.10
2019-02-03T01:04:35.989Z,53.67
2019-02-03T01:07:07.509Z,54.33
2019-02-03T01:09:37.965Z,52.77
2019-02-03T01:12:08.623Z,54.47
2019-02-03T01:14:39.113Z,53.50
2019-02-03T01:17:09.565Z,51.90
2019-02-03T01:19:40.330Z,53.60
2019-02-03T01:22:10.780Z,53.77
2019-02-03T01:24:41.283Z,56.13
2019-02-03T01:27:11.876Z,53.30
2019-02-03T01:29:42.328Z,52.33
2019-02-03T01:32:13.325Z,52.60
2019-02-03T01:34:43.808Z,54.37
2019-02-03T01:37:14.296Z,53.10
2019-02-03T01:39:44.748Z,55.17
2019-02-03T01:42:15.212Z,58.47
2019-02-03T01:44:45.987Z,54.07
2019-02-03T01:47:16.453Z,56.07
2019-02-03T01:49:46.916Z,55.37
2019-02-03T01:52:17.418Z,55.97
2019-02-03T01:54:48.368Z,55.57
2019-02-03T01:57:19.098Z,57.37
2019-02-03T01:59:49.588Z,55.90
2019-02-03T02:02:20.141Z,55.70
2019-02-03T02:04:50.679Z,57.63
2019-02-03T02:07:21.136Z,56.67
2019-02-03T02:09:51.868Z,56.47
2019-02-03T02:12:22.447Z,58.13
2019-02-03T02:14:53.030Z,58.93
2019-02-03T02:17:23.633Z,56.10
2019-02-03T02:19:54.065Z,59.43
2019-02-03T02:22:24.828Z,62.33
2019-02-03T02:24:55.275Z,58.10
2019-02-03T02:27:25.785Z,59.00
2019-02-03T02:29:56.244Z,58.57
2019-02-03T02:32:26.741Z,58.83
2019-02-03T02:34:57.618Z,57.10
2019-02-03T02:37:28.169Z,58.57
2019-02-03T02:40:11.772Z,56.20
2019-02-03T02:42:30.796Z,56.83
2019-02-03T02:45:01.289Z,54.63
2019-02-03T02:47:32.168Z,57.77
2019-02-03T02:50:02.666Z,57.67
2019-02-03T02:52:33.127Z,57.57
2019-02-03T02:55:03.626Z,61.60
2019-02-03T02:57:34.191Z,59.80
2019-02-03T03:00:05.794Z,60.07
2019-02-03T03:02:36.287Z,60.17
2019-02-03T03:05:08.351Z,57.97
2019-02-03T03:07:38.858Z,58.07
2019-02-03T03:10:10.393Z,60.63
2019-02-03T03:12:41.070Z,60.47
2019-02-03T03:15:12.771Z,61.67
2019-02-03T03:17:43.337Z,58.97
2019-02-03T03:20:15.239Z,57.47
2019-02-03T03:22:45.801Z,57.80
2019-02-03T03:25:17.627Z,61.27
2019-02-03T03:27:48.107Z,64.67
2019-02-03T03:30:28.932Z,59.53
2019-02-03T03:32:59.734Z,57.43
2019-02-03T03:35:33.741Z,60.63
2019-02-03T03:38:02.793Z,60.47
2019-02-03T03:40:33.392Z,60.53
2019-02-03T03:43:03.854Z,58.17
2019-02-03T03:45:34.321Z,57.07
2019-02-03T03:48:05.201Z,57.47
2019-02-03T03:50:35.660Z,58.47
2019-02-03T03:53:06.456Z,58.03
2019-02-03T03:55:37.013Z,57.73
2019-02-03T03:58:07.528Z,56.50
2019-02-03T04:00:38.112Z,58.57
2019-02-03T04:03:08.581Z,57.50
2019-02-03T04:05:39.389Z,52.70
2019-02-03T04:08:10.079Z,55.73
2019-02-03T04:10:40.684Z,53.47
2019-02-03T04:13:11.363Z,53.57
2019-02-03T04:15:41.922Z,53.53
2019-02-03T04:18:12.538Z,54.43
2019-02-03T04:20:43.015Z,53.17
2019-02-03T04:23:13.474Z,56.33
2019-02-03T04:25:44.208Z,54.67
2019-02-03T04:28:14.732Z,55.37
2019-02-03T04:30:45.196Z,58.90
2019-02-03T04:33:15.690Z,56.93
2019-02-03T04:35:46.161Z,57.30
2019-02-03T04:38:16.958Z,58.03
2019-02-03T04:40:47.421Z,57.67
2019-02-03T04:43:17.883Z,55.07
2019-02-03T04:45:48.377Z,57.00
2019-02-03T04:48:18.843Z,55.60
2019-02-03T04:50:49.615Z,59.30
2019-02-03T04:53:20.071Z,73.43
2019-02-03T04:55:50.575Z,81.77
2019-02-03T04:58:21.042Z,74.30
2019-02-03T05:00:51.538Z,69.63
2019-02-03T05:03:22.261Z,65.70
2019-02-03T05:05:52.757Z,66.23
2019-02-03T05:08:23.221Z,62.90
2019-02-03T05:10:53.720Z,68.03
2019-02-03T05:13:24.258Z,70.83
2019-02-03T05:15:54.993Z,62.87
2019-02-03T05:18:25.496Z,67.77
2019-02-03T05:20:55.957Z,72.57
2019-02-03T05:23:26.413Z,66.80
2019-02-03T05:25:56.919Z,71.43
2019-02-03T05:28:27.694Z,66.67
2019-02-03T05:30:58.152Z,66.93
2019-02-03T05:33:28.617Z,68.60
2019-02-03T05:35:59.143Z,68.83
2019-02-03T05:38:29.624Z,67.43
2019-02-03T05:41:00.120Z,66.63
2019-02-03T05:43:30.588Z,68.90
2019-02-03T05:46:01.085Z,67.87
2019-02-03T05:48:31.649Z,68.33
2019-02-03T05:51:02.148Z,67.23
2019-02-03T05:53:32.612Z,68.93
2019-02-03T05:56:03.226Z,71.07
2019-02-03T05:58:33.701Z,68.63
2019-02-03T06:01:04.194Z,68.43
2019-02-03T06:03:34.652Z,69.20
2019-02-03T06:06:05.162Z,67.20
2019-02-03T06:08:35.629Z,67.80
2019-02-03T06:11:06.313Z,68.17
2019-02-03T06:13:36.765Z,66.53
2019-02-03T06:16:07.331Z,66.50
2019-02-03T06:18:37.816Z,68.60
2019-02-03T06:21:08.267Z,68.03
2019-02-03T06:23:38.716Z,68.80
2019-02-03T06:26:09.173Z,70.57
2019-02-03T06:28:39.685Z,69.13
2019-02-03T06:31:14.489Z,70.40
2019-02-03T06:33:46.596Z,70.23
2019-02-03T06:36:17.479Z,70.47
2019-02-03T06:38:48.042Z,70.37
2019-02-03T06:41:18.780Z,71.30
2019-02-03T06:43:49.641Z,65.77
2019-02-03T06:46:37.641Z,69.43
2019-02-03T06:49:16.760Z,65.30
2019-02-03T06:51:47.585Z,73.80
2019-02-03T06:54:18.081Z,68.53
2019-02-03T06:56:48.600Z,70.67
2019-02-03T06:59:19.060Z,66.10
2019-02-03T07:01:49.567Z,65.33
2019-02-03T07:04:20.401Z,66.00
2019-02-03T07:06:50.917Z,62.40
2019-02-03T07:09:21.381Z,62.23
2019-02-03T07:11:51.840Z,61.43
2019-02-03T07:14:22.335Z,62.50
2019-02-03T07:16:52.889Z,60.50
2019-02-03T07:19:23.393Z,60.80
2019-02-03T07:21:53.904Z,60.03
2019-02-03T07:24:24.361Z,58.10
2019-02-03T07:26:54.918Z,56.77
2019-02-03T07:29:25.512Z,54.03
2019-02-03T07:31:56.093Z,53.33
2019-02-03T07:34:26.550Z,50.83
2019-02-03T07:36:57.066Z,52.17
2019-02-03T07:39:27.505Z,51.83
2019-02-03T07:41:58.001Z,53.57
2019-02-03T07:44:28.456Z,52.50
2019-02-03T07:46:58.958Z,50.90
2019-02-03T07:49:29.414Z,53.20
2019-02-03T07:51:59.872Z,54.40
2019-02-03T07:54:30.336Z,53.93
2019-02-03T07:57:00.806Z,54.33
2019-02-03T07:59:31.296Z,55.33
2019-02-03T08:02:01.795Z,54.73
2019-02-03T08:04:32.281Z,55.50
2019-02-03T08:07:02.791Z,54.37
2019-02-03T08:09:33.531Z,54.80
2019-02-03T08:12:04.182Z,55.73
2019-02-03T08:14:34.673Z,56.13
2019-02-03T08:17:05.267Z,55.57
2019-02-03T08:19:35.722Z,56.90
2019-02-03T08:22:06.657Z,55.27
2019-02-03T08:24:37.160Z,53.57
2019-02-03T08:27:07.710Z,54.57
2019-02-03T08:29:38.221Z,57.07
2019-02-03T08:32:08.756Z,57.17
2019-02-03T08:34:39.640Z,56.20
2019-02-03T08:37:10.222Z,57.10
2019-02-03T08:39:40.648Z,58.33
2019-02-03T08:42:11.245Z,59.03
2019-02-03T08:44:41.704Z,57.20
2019-02-03T08:47:12.273Z,59.77
2019-02-03T08:49:42.777Z,58.77
2019-02-03T08:52:13.236Z,62.10
2019-02-03T08:54:56.852Z,58.73
2019-02-03T08:57:15.914Z,62.67
2019-02-03T08:59:46.800Z,60.83
2019-02-03T09:02:17.278Z,58.27
2019-02-03T09:04:47.811Z,60.33
2019-02-03T09:07:18.315Z,57.13
2019-02-03T09:09:48.805Z,57.80
2019-02-03T09:12:19.593Z,58.10
2019-02-03T09:14:50.053Z,57.03
2019-02-03T09:17:20.559Z,60.17
2019-02-03T09:19:51.083Z,57.50
2019-02-03T09:22:21.623Z,56.97
2019-02-03T09:24:52.077Z,58.13
2019-02-03T09:27:22.570Z,57.63
2019-02-03T09:29:53.176Z,60.10
2019-02-03T09:32:23.643Z,58.20
2019-02-03T09:34:54.147Z,61.63
2019-02-03T09:37:24.724Z,56.77
2019-02-03T09:39:55.232Z,57.67
2019-02-03T09:42:25.696Z,57.17
2019-02-03T09:44:56.426Z,59.67
2019-02-03T09:47:26.972Z,57.07
2019-02-03T09:49:57.545Z,57.00
2019-02-03T09:52:28.041Z,56.90
2019-02-03T09:54:58.504Z,57.77
2019-02-03T09:57:29.049Z,56.97
2019-02-03T09:59:59.540Z,56.53
2019-02-03T10:02:30.168Z,58.13
2019-02-03T10:05:00.901Z,56.23
2019-02-03T10:07:31.406Z,55.73
2019-02-03T10:10:01.964Z,52.10
2019-02-03T10:12:32.461Z,47.27
2019-02-03T10:15:02.927Z,46.47
2019-02-03T10:17:33.812Z,45.07
2019-02-03T10:20:05.237Z,44.53
2019-02-03T10:22:35.749Z,43.77
2019-02-03T10:25:08.608Z,40.73
2019-02-03T10:27:39.219Z,41.83
2019-02-03T10:30:10.750Z,38.17
2019-02-03T10:32:41.354Z,37.70
2019-02-03T10:35:22.962Z,36.03
2019-02-03T10:37:47.025Z,32.23
2019-02-03T10:40:19.890Z,34.33
2019-02-03T10:42:51.221Z,31.53
2019-02-03T10:45:23.322Z,34.17
2019-02-03T10:47:54.077Z,32.30
2019-02-03T10:50:26.895Z,31.83
2019-02-03T10:52:57.584Z,30.10
2019-02-03T10:55:28.190Z,27.77
2019-02-03T10:57:59.048Z,27.47
2019-02-03T11:00:31.644Z,26.40
2019-02-03T11:03:02.249Z,27.23
2019-02-03T11:05:44.086Z,27.70
2019-02-03T11:08:15.863Z,27.13
2019-02-03T11:10:47.187Z,25.57
2019-02-03T11:13:18.031Z,28.10
2019-02-03T11:15:48.711Z,28.30
2019-02-03T11:18:19.556Z,27.80
2019-02-03T11:20:50.052Z,30.83
2019-02-03T11:23:20.635Z,28.63
2019-02-03T11:25:51.144Z,28.23
2019-02-03T11:28:21.705Z,30.47
2019-02-03T11:30:52.175Z,29.40
2019-02-03T11:33:22.645Z,29.00
2019-02-03T11:35:53.286Z,29.20
2019-02-03T11:38:24.023Z,28.97
2019-02-03T11:40:54.486Z,31.83
2019-02-03T11:43:24.987Z,33.33
2019-02-03T11:45:55.820Z,33.27
2019-02-03T11:48:26.337Z,38.30
2019-02-03T11:50:56.821Z,41.17
2019-02-03T11:53:29.457Z,40.53
2019-02-03T11:55:59.914Z,37.67
2019-02-03T11:58:30.781Z,48.30
2019-02-03T12:01:01.737Z,46.17
2019-02-03T12:03:32.225Z,38.50
2019-02-03T12:06:02.823Z,42.93
2019-02-03T12:08:33.323Z,38.27
2019-02-03T12:11:04.269Z,36.40
2019-02-03T12:13:34.765Z,28.13
2019-02-03T12:16:05.465Z,29.87
2019-02-03T12:18:35.979Z,27.67
2019-02-03T12:21:07.665Z,29.70
2019-02-03T12:23:38.381Z,28.03
2019-02-03T12:26:08.888Z,27.70
2019-02-03T12:28:39.394Z,28.33
2019-02-03T12:31:09.995Z,29.07
2019-02-03T12:33:40.559Z,28.40
2019-02-03T12:36:11.065Z,28.30
2019-02-03T12:38:41.570Z,28.20
2019-02-03T12:41:12.077Z,30.00
2019-02-03T12:43:42.604Z,27.80
2019-02-03T12:46:13.105Z,28.77
2019-02-03T12:48:43.561Z,28.77
2019-02-03T12:51:14.158Z,27.03
2019-02-03T12:53:44.629Z,24.97
2019-02-03T12:56:15.097Z,24.80
2019-02-03T12:58:45.613Z,35.17
2019-02-03T13:01:16.478Z,30.20
2019-02-03T13:03:46.981Z,48.90
2019-02-03T13:06:17.446Z,91.10
2019-02-03T13:08:47.943Z,37.93
2019-02-03T13:11:18.502Z,28.47
2019-02-03T13:13:49.284Z,23.93
2019-02-03T13:16:20.540Z,24.70
2019-02-03T13:18:51.327Z,30.03
2019-02-03T13:21:21.926Z,38.93
2019-02-03T13:23:52.586Z,28.00
2019-02-03T13:26:23.043Z,27.73
2019-02-03T13:28:53.552Z,27.67
2019-02-03T13:31:24.012Z,27.73
2019-02-03T13:33:54.523Z,27.57
2019-02-03T13:36:24.987Z,28.47
2019-02-03T13:38:55.497Z,30.00
2019-02-03T13:41:25.983Z,26.90
2019-02-03T13:43:57.757Z,30.40
2019-02-03T13:46:28.318Z,28.93
2019-02-03T13:48:58.830Z,27.43
2019-02-03T13:51:29.293Z,25.57
2019-02-03T13:53:59.836Z,26.00
2019-02-03T13:56:31.873Z,29.37
2019-02-03T13:59:06.051Z,31.60
2019-02-03T14:01:38.424Z,28.07
2019-02-03T14:04:12.587Z,28.53
2019-02-03T14:06:43.118Z,28.33
2019-02-03T14:09:13.841Z,27.27
2019-02-03T14:11:44.337Z,27.57
2019-02-03T14:14:14.799Z,28.90
2019-02-03T14:16:45.270Z,24.33
2019-02-03T14:19:15.753Z,25.23
2019-02-03T14:21:46.368Z,24.57
2019-02-03T14:24:16.864Z,23.37
2019-02-03T14:26:47.364Z,24.87
2019-02-03T14:29:17.830Z,24.03
2019-02-03T14:31:48.341Z,23.70
2019-02-03T14:34:18.802Z,24.07
2019-02-03T14:36:49.312Z,31.40
2019-02-03T14:39:19.777Z,30.87
2019-02-03T14:41:50.292Z,28.83
2019-02-03T14:44:20.908Z,27.47
2019-02-03T14:46:51.415Z,26.80
2019-02-03T14:49:21.954Z,24.37
2019-02-03T14:51:52.417Z,25.60
2019-02-03T14:54:22.921Z,26.17
2019-02-03T14:56:53.393Z,25.23
2019-02-03T14:59:23.854Z,24.90
2019-02-03T15:01:54.366Z,24.83
2019-02-03T15:04:24.863Z,25.27
2019-02-03T15:06:55.310Z,25.50
2019-02-03T15:09:25.882Z,25.77
2019-02-03T15:11:56.338Z,26.57
2019-02-03T15:14:26.843Z,27.30
2019-02-03T15:16:57.309Z,26.87
2019-02-03T15:19:27.802Z,25.60
2019-02-03T15:21:58.259Z,27.00
2019-02-03T15:24:28.761Z,25.40
2019-02-03T15:26:59.275Z,25.63
2019-02-03T15:29:29.822Z,26.90
2019-02-03T15:32:00.329Z,26.63
2019-02-03T15:34:30.834Z,26.53
2019-02-03T15:37:01.408Z,28.87
2019-02-03T15:39:31.918Z,26.77
2019-02-03T15:42:02.431Z,27.07
2019-02-03T15:44:32.898Z,28.67
2019-02-03T15:47:03.377Z,27.73
2019-02-03T15:49:33.829Z,29.43
2019-02-03T15:52:04.620Z,31.47
2019-02-03T15:54:35.094Z,27.97
2019-02-03T15:57:05.958Z,27.87
2019-02-03T15:59:36.427Z,29.20
2019-02-03T16:02:07.106Z,30.13
2019-02-03T16:04:37.580Z,29.10
2019-02-03T16:07:08.071Z,33.80
2019-02-03T16:09:38.580Z,36.70
2019-02-03T16:12:09.045Z,35.23
2019-02-03T16:14:39.511Z,33.70
2019-02-03T16:17:10.015Z,31.00
2019-02-03T16:19:40.522Z,30.43
2019-02-03T16:22:10.981Z,34.67
2019-02-03T16:24:41.493Z,33.93
2019-02-03T16:27:14.910Z,34.50
2019-02-03T16:29:44.161Z,35.17
2019-02-03T16:32:14.674Z,31.50
2019-02-03T16:34:45.139Z,32.50
2019-02-03T16:37:15.643Z,32.50
2019-02-03T16:39:46.116Z,38.30
2019-02-03T16:42:16.634Z,41.17
2019-02-03T16:44:47.241Z,37.87
2019-02-03T16:47:17.741Z,43.20
2019-02-03T16:49:48.241Z,41.07
2019-02-03T16:52:18.819Z,43.00
2019-02-03T16:54:49.277Z,39.50
2019-02-03T16:57:20.083Z,46.33
2019-02-03T16:59:50.585Z,44.40
2019-02-03T17:02:21.081Z,51.73
2019-02-03T17:04:51.547Z,51.87
2019-02-03T17:07:22.000Z,54.70
2019-02-03T17:09:52.525Z,54.67
2019-02-03T17:12:23.046Z,68.43
2019-02-03T17:14:53.506Z,65.53
2019-02-03T17:17:24.070Z,61.37
2019-02-03T17:19:54.542Z,84.90
2019-02-03T17:22:25.116Z,81.43
2019-02-03T17:24:55.863Z,88.63
2019-02-03T17:27:26.370Z,88.60
2019-02-03T17:29:56.920Z,92.97
2019-02-03T17:32:27.442Z,96.60
2019-02-03T17:34:57.923Z,96.27
2019-02-03T17:37:28.643Z,94.37
2019-02-03T17:39:59.106Z,96.37
2019-02-03T17:42:29.823Z,93.13
2019-02-03T17:45:00.642Z,94.00
2019-02-03T17:47:31.176Z,95.13
2019-02-03T17:50:01.955Z,94.83
2019-02-03T17:52:38.995Z,95.97
2019-02-03T17:55:05.987Z,86.37
2019-02-03T17:57:36.679Z,91.97
2019-02-03T18:00:09.219Z,87.77
2019-02-03T18:02:39.887Z,89.03
2019-02-03T18:05:13.249Z,94.10
2019-02-03T18:07:43.867Z,98.20
2019-02-03T18:10:16.345Z,97.83
2019-02-03T18:12:47.099Z,93.43
2019-02-03T18:15:17.898Z,98.10
2019-02-03T18:17:48.519Z,94.13
2019-02-03T18:20:20.203Z,93.47
2019-02-03T18:22:50.706Z,93.40
2019-02-03T18:25:21.373Z,98.03
2019-02-03T18:27:51.997Z,93.07
2019-02-03T18:30:26.472Z,97.73
2019-02-03T18:32:58.530Z,98.70
2019-02-03T18:35:29.204Z,102.47
2019-02-03T18:38:00.187Z,102.77
2019-02-03T18:40:30.794Z,103.27
2019-02-03T18:43:02.126Z,107.70
2019-02-03T18:45:32.849Z,112.03
2019-02-03T18:48:03.333Z,106.70
2019-02-03T18:50:34.320Z,107.30
2019-02-03T18:53:04.991Z,105.60
2019-02-03T18:55:37.271Z,100.53
2019-02-03T18:58:08.038Z,97.33
2019-02-03T19:00:39.022Z,98.33
2019-02-03T19:03:10.435Z,100.87
2019-02-03T19:05:41.834Z,99.37
2019-02-03T19:08:12.369Z,101.67
2019-02-03T19:10:42.826Z,98.77
2019-02-03T19:13:13.434Z,99.53
2019-02-03T19:15:44.161Z,98.53
2019-02-03T19:18:14.721Z,97.83
2019-02-03T19:20:45.237Z,99.67
2019-02-03T19:23:15.724Z,99.57
2019-02-03T19:25:46.238Z,95.30
2019-02-03T19:28:17.132Z,96.90
2019-02-03T19:30:47.702Z,96.10
2019-02-03T19:33:18.223Z,95.40
2019-02-03T19:35:48.670Z,92.53
2019-02-03T19:38:19.139Z,94.87
2019-02-03T19:40:49.612Z,95.60
2019-02-03T19:43:20.166Z,97.87
2019-02-03T19:45:50.642Z,95.03
2019-02-03T19:48:21.147Z,95.07
2019-02-03T19:50:51.620Z,93.87
2019-02-03T19:53:22.125Z,95.37
2019-02-03T19:55:52.590Z,93.13
2019-02-03T19:58:23.105Z,92.33
2019-02-03T20:00:53.725Z,95.20
2019-02-03T20:03:24.190Z,91.90
2019-02-03T20:05:54.648Z,91.90
2019-02-03T20:08:25.254Z,90.70
2019-02-03T20:10:55.716Z,90.97
2019-02-03T20:13:26.249Z,87.23
2019-02-03T20:15:56.717Z,87.97
2019-02-03T20:18:27.182Z,86.47
2019-02-03T20:20:57.854Z,87.53
2019-02-03T20:23:28.348Z,91.27
2019-02-03T20:25:58.846Z,90.93
2019-02-03T20:28:29.297Z,86.20
2019-02-03T20:30:59.800Z,88.13
2019-02-03T20:33:30.530Z,90.57
2019-02-03T20:36:01.046Z,86.90
2019-02-03T20:38:31.511Z,87.50
2019-02-03T20:41:02.110Z,89.87
2019-02-03T20:43:32.560Z,92.47
2019-02-03T20:46:03.054Z,86.77
2019-02-03T20:48:33.676Z,86.73
2019-02-03T20:51:04.105Z,89.27
2019-02-03T20:53:34.803Z,85.63
2019-02-03T20:56:05.420Z,79.93
2019-02-03T20:58:35.908Z,82.80
2019-02-03T21:01:07.309Z,83.53
2019-02-03T21:03:37.787Z,82.63
2019-02-03T21:06:08.298Z,80.57
2019-02-03T21:08:38.861Z,81.77
2019-02-03T21:11:09.354Z,86.37
2019-02-03T21:13:39.850Z,87.47
2019-02-03T21:16:10.453Z,86.37
2019-02-03T21:18:40.914Z,89.03
2019-02-03T21:21:11.464Z,87.00
2019-02-03T21:23:42.047Z,87.97
2019-02-03T21:26:16.390Z,89.17
2019-02-03T21:28:45.011Z,95.33
2019-02-03T21:31:15.474Z,90.87
2019-02-03T21:33:45.979Z,87.80
2019-02-03T21:36:16.449Z,91.07
2019-02-03T21:38:47.131Z,90.87
2019-02-03T21:41:17.689Z,87.95
2019-02-03T21:43:48.194Z,86.37
2019-02-03T21:46:18.667Z,85.10
2019-02-03T21:48:49.393Z,80.63
2019-02-03T21:51:20.125Z,80.43
2019-02-03T21:53:50.629Z,75.53
2019-02-03T21:56:21.141Z,78.63
2019-02-03T21:58:51.612Z,75.83
2019-02-03T22:01:22.072Z,74.97
2019-02-03T22:03:52.861Z,73.90
2019-02-03T22:06:23.361Z,75.63
2019-02-03T22:08:53.830Z,72.97
2019-02-03T22:11:24.379Z,74.90
2019-02-03T22:13:54.843Z,71.17
2019-02-03T22:16:25.329Z,72.07
2019-02-03T22:18:55.786Z,73.27
2019-02-03T22:21:26.284Z,73.03
2019-02-03T22:23:58.019Z,70.70
2019-02-03T22:26:28.520Z,73.77
2019-02-03T22:28:59.257Z,72.03
2019-02-03T22:31:29.733Z,70.47
2019-02-03T22:34:00.250Z,72.03
2019-02-03T22:36:30.707Z,73.17
2019-02-03T22:39:01.166Z,73.67
2019-02-03T22:41:31.757Z,69.20
2019-02-03T22:44:02.194Z,79.97
2019-02-03T22:46:32.645Z,77.37
2019-02-03T22:49:03.546Z,82.07
2019-02-03T22:51:34.062Z,87.03
2019-02-03T22:54:04.670Z,86.57
2019-02-03T22:56:35.151Z,87.90
2019-02-03T22:59:05.759Z,91.53
2019-02-03T23:01:39.536Z,87.50
2019-02-03T23:04:15.566Z,95.80
2019-02-03T23:06:46.111Z,96.73
2019-02-03T23:09:31.395Z,91.70
2019-02-03T23:12:02.826Z,96.70
2019-02-03T23:14:33.702Z,98.90
2019-02-03T23:17:04.507Z,90.03
2019-02-03T23:19:34.980Z,92.30
2019-02-03T23:22:05.695Z,91.00
2019-02-03T23:24:36.277Z,92.43
2019-02-03T23:27:06.957Z,93.67
2019-02-03T23:29:37.751Z,93.77
2019-02-03T23:32:08.356Z,90.97
2019-02-03T23:34:38.817Z,90.00
2019-02-03T23:37:09.292Z,87.07
2019-02-03T23:39:39.799Z,89.77
2019-02-03T23:42:10.675Z,90.00
2019-02-03T23:44:41.151Z,88.20
2019-02-03T23:47:11.779Z,89.50
2019-02-03T23:49:42.420Z,91.80
2019-02-03T23:52:12.863Z,92.20
2019-02-03T23:54:43.550Z,86.73
2019-02-03T23:57:14.018Z,82.97
2019-02-03T23:59:44.517Z,85.73
